Friday, November 17, 2017, 4:11 PM EST
Back to Local

KMMU, Morristown Municipal

Location: Morristown, NJ, United States Lat: 40.8
Local Time: 4:11 PM EST (21:11 GMT) Lon: -74.417
Time Zone: US/Eastern Elev: 187 ft

Show me the last for .
Show Coded

Time T Td Feel RH Dir Speed Gust Alt SLP Vis Weather Sky Remarks
2017-11-17 15:45 46 14 40 26 340° 8 14 30.08 - 10 FEW250 None
2017-11-17 14:50 48 16 40 26 330° 18 24 30.08 - 10 FEW250 None
2017-11-17 13:55 46 18 38 31 330° 17 24 30.07 - 10 FEW250 None
2017-11-17 12:45 46 19 38 33 300° 7 24 30.08 - 10 CLR None
2017-11-17 11:45 45 21 36 39 330° 12 21 30.08 - 10 CLR None
2017-11-17 11:00 43 21 35 41 310° 6 17 30.10 - 10 FEW050 None
2017-11-17 10:45 43 21 33 41 330° 10 26 30.10 - 10 FEW050 None
2017-11-17 09:45 41 25 31 52 330° 15 23 30.12 - 10 FEW150 None
2017-11-17 08:45 41 25 31 52 350° 12 22 30.10 - 10 SCT037 None
2017-11-17 07:45 39 25 28 55 330° 14 29 30.08 - 10 SCT037 None
2017-11-17 06:45 37 25 27 60 350° 7 22 30.05 - 10 SCT039 None
2017-11-17 05:35 39 27 29 60 330° 14 22 30.04 - 10 OVC039 None
2017-11-17 05:15 41 27 31 56 320° 14 22 30.03 - 10 OVC039 None
2017-11-17 04:55 41 27 35 56 330° 9 - 30.01 - 10 OVC039 None
2017-11-17 04:35 41 27 36 56 330° 8 - 30.01 - 10 OVC041 None
2017-11-17 04:15 41 28 32 60 310° 9 20 30.00 - 10 OVC037 None
2017-11-17 03:55 41 28 37 60 310° 6 - 29.98 - 10 OVC037 None
2017-11-17 03:35 41 28 36 60 320° 7 - 29.98 - 10 OVC041 None
2017-11-17 03:15 41 28 32 60 320° 8 21 29.98 - 10 OVC042 None
2017-11-17 02:55 41 28 32 60 310° 13 20 29.97 - 10 SCT036 OVC044 None
2017-11-17 02:35 43 30 35 60 310° 10 17 29.97 - 10 SCT036 BKN043 BKN050 None
2017-11-17 02:15 41 30 32 65 310° 15 21 29.96 - 10 SCT034 BKN050 None
2017-11-17 01:55 43 32 38 65 280° 8 - 29.96 - 10 SCT034 BKN050 None
2017-11-17 01:35 43 32 35 65 290° 9 18 29.94 - 10 SCT034 SCT046 BKN055 None
2017-11-17 01:15 43 32 34 65 310° 10 20 29.94 - 10 SCT034 SCT042 OVC055 None
2017-11-17 00:55 43 32 34 65 310° 13 20 29.94 - 10 BKN034 BKN042 OVC049 None
2017-11-17 00:35 45 34 41 65 310° 6 - 29.93 - 10 BKN034 BKN041 OVC050 None
2017-11-17 00:15 45 34 41 65 280° 7 - 29.92 - 10 OVC038 None
2017-11-16 23:55 45 34 40 65 270° 8 - 29.92 - 10 OVC043 None
2017-11-16 23:35 45 34 41 65 270° 6 - 29.91 - 10 OVC046 None
2017-11-16 23:15 43 34 39 70 270° 7 - 29.91 - 10 BKN048 BKN070 None
2017-11-16 22:55 43 34 38 70 270° 8 - 29.90 - 10 SCT045 SCT050 BKN070 None
2017-11-16 22:35 45 34 43 65 260° 3 - 29.90 - 10 SCT034 BKN043 OVC070 None
2017-11-16 22:15 45 34 43 65 290° 3 - 29.91 - 10 BKN034 BKN040 OVC055 None
2017-11-16 21:55 45 34 37 65 270° 12 18 29.90 - 10 SCT041 BKN047 OVC070 None
2017-11-16 21:45 45 34 36 65 290° 12 24 29.91 - 10 OVC046 None
2017-11-16 21:35 45 34 40 65 260° 9 - 29.91 - 10 SCT038 OVC044 None
2017-11-16 20:45 45 34 36 65 390° 13 21 29.90 - 10 SCT050 None
2017-11-16 19:45 45 34 41 65 280° 7 - 29.89 - 10 FEW040 None
2017-11-16 18:45 46 34 38 61 300° 16 28 29.88 - 10 SCT040 None
2017-11-16 17:45 48 34 40 57 270° 13 25 29.85 - 10 SCT040 None
2017-11-16 16:45 48 34 42 57 310° 15 - 29.83 - 10 FEW055 None

Support USWX by starting your Amazon purchase here.